createdAt,value
2018-10-21T00:02:01.434Z,91.31
2018-10-21T00:04:29.593Z,91.06
2018-10-21T00:06:57.683Z,91.48
2018-10-21T00:09:25.785Z,90.54
2018-10-21T00:11:53.932Z,89.72
2018-10-21T00:14:22.108Z,89.09
2018-10-21T00:16:50.240Z,88.79
2018-10-21T00:19:18.356Z,88.72
2018-10-21T00:21:46.488Z,88.49
2018-10-21T00:24:14.611Z,88.38
2018-10-21T00:26:42.708Z,87.94
2018-10-21T00:29:10.806Z,87.07
2018-10-21T00:31:38.915Z,86.89
2018-10-21T00:34:07.018Z,87.10
2018-10-21T00:36:35.109Z,87.61
2018-10-21T00:39:03.341Z,87.93
2018-10-21T00:41:31.445Z,88.50
2018-10-21T00:43:59.712Z,88.43
2018-10-21T00:46:27.807Z,87.76
2018-10-21T00:48:55.905Z,86.74
2018-10-21T00:51:24.036Z,86.83
2018-10-21T00:53:52.209Z,86.71
2018-10-21T00:56:20.295Z,86.47
2018-10-21T00:58:48.404Z,87.02
2018-10-21T01:01:16.726Z,88.36
2018-10-21T01:03:44.838Z,88.92
2018-10-21T01:06:12.933Z,88.43
2018-10-21T01:08:41.055Z,88.21
2018-10-21T01:11:09.140Z,87.84
2018-10-21T01:13:37.283Z,88.23
2018-10-21T01:16:05.499Z,88.55
2018-10-21T01:18:33.619Z,88.47
2018-10-21T01:21:01.781Z,88.80
2018-10-21T01:23:29.863Z,88.81
2018-10-21T01:25:57.953Z,88.47
2018-10-21T01:28:26.183Z,87.61
2018-10-21T01:30:54.315Z,86.71
2018-10-21T01:33:22.414Z,85.13
2018-10-21T01:35:50.515Z,85.23
2018-10-21T01:38:18.685Z,84.58
2018-10-21T01:40:47.780Z,84.21
2018-10-21T01:43:17.087Z,83.04
2018-10-21T01:45:45.380Z,82.72
2018-10-21T01:48:14.660Z,81.87
2018-10-21T01:50:42.855Z,81.55
2018-10-21T01:53:11.939Z,81.94
2018-10-21T01:55:40.044Z,81.55
2018-10-21T01:58:08.386Z,81.28
2018-10-21T02:00:36.767Z,81.76
2018-10-21T02:03:05.137Z,80.90
2018-10-21T02:05:33.604Z,81.42
2018-10-21T02:08:01.690Z,81.58
2018-10-21T02:10:29.795Z,81.36
2018-10-21T02:12:57.922Z,80.87
2018-10-21T02:15:26.106Z,81.37
2018-10-21T02:17:54.200Z,81.36
2018-10-21T02:20:22.907Z,81.17
2018-10-21T02:22:51.285Z,80.89
2018-10-21T02:25:19.407Z,81.15
2018-10-21T02:27:48.342Z,81.12
2018-10-21T02:30:17.728Z,80.90
2018-10-21T02:32:46.735Z,81.27
2018-10-21T02:35:15.528Z,80.92
2018-10-21T02:37:44.127Z,81.53
2018-10-21T02:41:27.504Z,81.71
2018-10-21T02:43:55.632Z,81.81
2018-10-21T02:46:24.309Z,81.66
2018-10-21T02:48:53.680Z,81.93
2018-10-21T02:51:21.845Z,81.54
2018-10-21T02:53:49.967Z,81.35
2018-10-21T02:56:18.182Z,81.69
2018-10-21T02:58:46.284Z,81.51
2018-10-21T03:01:14.399Z,81.74
2018-10-21T03:03:42.496Z,81.70
2018-10-21T03:06:10.617Z,81.54
2018-10-21T03:08:39.384Z,81.56
2018-10-21T03:11:07.588Z,81.49
2018-10-21T03:13:35.760Z,81.66
2018-10-21T03:16:04.327Z,81.99
2018-10-21T03:18:32.543Z,81.61
2018-10-21T03:21:01.431Z,82.13
2018-10-21T03:23:29.552Z,82.35
2018-10-21T03:25:57.833Z,82.27
2018-10-21T03:28:25.926Z,82.46
2018-10-21T03:30:54.027Z,82.89
2018-10-21T03:33:22.383Z,82.19
2018-10-21T03:35:50.256Z,82.86
2018-10-21T03:38:18.443Z,82.47
2018-10-21T03:40:46.583Z,82.65
2018-10-21T03:43:14.683Z,82.06
2018-10-21T03:45:42.770Z,82.27
2018-10-21T03:48:10.884Z,83.00
2018-10-21T03:50:38.983Z,82.42
2018-10-21T03:53:07.136Z,82.79
2018-10-21T03:55:37.655Z,82.69
2018-10-21T03:58:06.198Z,82.85
2018-10-21T04:00:34.553Z,82.70
2018-10-21T04:03:03.100Z,82.79
2018-10-21T04:05:31.254Z,82.84
2018-10-21T04:07:59.391Z,82.96
2018-10-21T04:10:27.492Z,82.94
2018-10-21T04:12:55.792Z,82.95
2018-10-21T04:15:23.966Z,82.99
2018-10-21T04:17:52.097Z,83.06
2018-10-21T04:20:20.384Z,83.42
2018-10-21T04:22:50.444Z,83.61
2018-10-21T04:25:18.809Z,83.25
2018-10-21T04:27:46.904Z,83.18
2018-10-21T04:30:18.760Z,82.87
2018-10-21T04:32:48.499Z,83.24
2018-10-21T04:35:17.041Z,83.58
2018-10-21T04:38:38.379Z,83.45
2018-10-21T04:41:06.559Z,83.24
2018-10-21T04:43:34.719Z,83.46
2018-10-21T04:46:02.833Z,83.28
2018-10-21T04:48:30.911Z,83.18
2018-10-21T04:50:59.020Z,83.33
2018-10-21T04:53:27.161Z,83.32
2018-10-21T04:55:55.261Z,83.53
2018-10-21T04:58:23.389Z,83.41
2018-10-21T05:00:51.759Z,84.00
2018-10-21T05:03:19.707Z,83.94
2018-10-21T05:05:47.909Z,84.26
2018-10-21T05:08:16.006Z,85.49
2018-10-21T05:10:44.103Z,86.53
2018-10-21T05:13:12.203Z,87.78
2018-10-21T05:15:40.655Z,87.88
2018-10-21T05:18:08.767Z,88.05
2018-10-21T05:20:36.899Z,88.68
2018-10-21T05:23:05.076Z,88.84
2018-10-21T05:25:33.186Z,89.02
2018-10-21T05:28:01.318Z,90.08
2018-10-21T05:30:29.397Z,91.06
2018-10-21T05:32:57.511Z,91.77
2018-10-21T05:35:25.639Z,92.14
2018-10-21T05:37:53.814Z,92.09
2018-10-21T05:40:22.732Z,92.50
2018-10-21T05:42:51.044Z,92.45
2018-10-21T05:45:19.132Z,92.71
2018-10-21T05:47:47.235Z,93.45
2018-10-21T05:50:16.034Z,93.46
2018-10-21T05:52:44.482Z,93.31
2018-10-21T05:55:13.255Z,92.97
2018-10-21T05:57:41.412Z,92.93
2018-10-21T06:00:14.658Z,92.07
2018-10-21T06:02:43.027Z,90.81
2018-10-21T06:05:22.394Z,91.01
2018-10-21T06:07:50.487Z,91.09
2018-10-21T06:10:18.745Z,91.84
2018-10-21T06:12:46.757Z,92.48
2018-10-21T06:15:14.847Z,93.51
2018-10-21T06:17:42.944Z,93.98
2018-10-21T06:20:18.821Z,94.00
2018-10-21T06:22:47.387Z,94.10
2018-10-21T06:25:15.508Z,94.15
2018-10-21T06:27:43.693Z,94.22
2018-10-21T06:30:12.520Z,93.91
2018-10-21T06:32:40.808Z,93.35
2018-10-21T06:35:09.769Z,93.24
2018-10-21T06:37:38.007Z,92.64
2018-10-21T06:40:07.704Z,93.57
2018-10-21T06:42:35.841Z,93.79
2018-10-21T06:45:04.009Z,93.37
2018-10-21T06:47:32.167Z,92.80
2018-10-21T06:50:00.289Z,92.03
2018-10-21T06:52:28.388Z,91.61
2018-10-21T06:54:56.474Z,91.40
2018-10-21T06:57:24.948Z,91.50
2018-10-21T06:59:52.888Z,91.02
2018-10-21T07:02:21.014Z,90.41
2018-10-21T07:04:49.172Z,90.39
2018-10-21T07:07:17.280Z,90.12
2018-10-21T07:09:45.375Z,89.90
2018-10-21T07:12:13.494Z,89.02
2018-10-21T07:14:41.597Z,89.69
2018-10-21T07:17:09.687Z,89.86
2018-10-21T07:19:37.787Z,89.96
2018-10-21T07:22:05.997Z,90.07
2018-10-21T07:24:34.031Z,90.26
2018-10-21T07:27:02.150Z,89.85
2018-10-21T07:29:30.246Z,89.41
2018-10-21T07:31:58.347Z,89.09
2018-10-21T07:34:26.439Z,89.17
2018-10-21T07:36:54.532Z,88.12
2018-10-21T07:39:22.631Z,87.31
2018-10-21T07:41:50.744Z,86.87
2018-10-21T07:44:18.839Z,87.02
2018-10-21T07:46:46.975Z,86.26
2018-10-21T07:49:15.144Z,85.58
2018-10-21T07:51:43.203Z,86.12
2018-10-21T07:54:11.315Z,85.38
2018-10-21T07:56:39.467Z,85.19
2018-10-21T07:59:07.605Z,84.57
2018-10-21T08:01:35.696Z,84.10
2018-10-21T08:04:03.814Z,84.05
2018-10-21T08:06:43.290Z,83.45
2018-10-21T08:09:12.066Z,82.95
2018-10-21T08:11:40.159Z,83.02
2018-10-21T08:14:08.266Z,82.96
2018-10-21T08:16:36.378Z,82.80
2018-10-21T08:19:04.566Z,82.04
2018-10-21T08:21:32.656Z,81.93
2018-10-21T08:24:00.750Z,81.35
2018-10-21T08:26:28.868Z,81.06
2018-10-21T08:28:56.975Z,80.64
2018-10-21T08:31:25.072Z,80.83
2018-10-21T08:33:53.204Z,80.90
2018-10-21T08:36:21.319Z,81.10
2018-10-21T08:38:49.468Z,80.40
2018-10-21T08:41:17.565Z,80.17
2018-10-21T08:43:45.763Z,80.55
2018-10-21T08:46:13.954Z,80.10
2018-10-21T08:48:42.144Z,79.87
2018-10-21T08:51:10.455Z,79.34
2018-10-21T08:53:38.562Z,79.43
2018-10-21T08:56:06.663Z,78.26
2018-10-21T08:58:34.787Z,78.40
2018-10-21T09:01:02.902Z,78.67
2018-10-21T09:03:31.019Z,78.09
2018-10-21T09:05:59.115Z,77.66
2018-10-21T09:08:27.259Z,77.46
2018-10-21T09:10:55.391Z,77.24
2018-10-21T09:13:23.476Z,77.26
2018-10-21T09:15:51.751Z,76.90
2018-10-21T09:18:19.871Z,76.67
2018-10-21T09:20:48.005Z,76.05
2018-10-21T09:23:16.119Z,76.00
2018-10-21T09:25:44.464Z,75.66
2018-10-21T09:28:12.685Z,75.81
2018-10-21T09:30:40.711Z,75.44
2018-10-21T09:33:08.876Z,75.22
2018-10-21T09:35:36.988Z,75.05
2018-10-21T09:38:05.472Z,74.61
2018-10-21T09:40:33.628Z,74.45
2018-10-21T09:43:01.793Z,74.06
2018-10-21T09:45:29.939Z,73.72
2018-10-21T09:47:58.155Z,72.40
2018-10-21T09:50:26.265Z,72.58
2018-10-21T09:52:54.374Z,72.15
2018-10-21T09:55:26.248Z,70.71
2018-10-21T09:57:54.425Z,71.16
2018-10-21T10:00:27.814Z,70.81
2018-10-21T10:03:01.335Z,70.64
2018-10-21T10:05:29.445Z,70.12
2018-10-21T10:07:57.572Z,69.52
2018-10-21T10:10:26.196Z,70.05
2018-10-21T10:12:54.355Z,69.48
2018-10-21T10:15:22.410Z,69.64
2018-10-21T10:17:50.531Z,68.92
2018-10-21T10:20:18.619Z,68.44
2018-10-21T10:22:46.716Z,68.14
2018-10-21T10:25:14.917Z,67.99
2018-10-21T10:27:42.972Z,66.99
2018-10-21T10:30:12.265Z,67.30
2018-10-21T10:32:41.696Z,66.19
2018-10-21T10:35:10.621Z,66.33
2018-10-21T10:37:38.755Z,65.42
2018-10-21T10:40:07.359Z,65.44
2018-10-21T10:42:35.433Z,65.40
2018-10-21T10:45:03.560Z,65.21
2018-10-21T10:47:31.736Z,64.13
2018-10-21T10:49:59.898Z,64.85
2018-10-21T10:52:28.009Z,64.05
2018-10-21T10:54:56.148Z,64.15
2018-10-21T10:57:24.313Z,64.77
2018-10-21T10:59:52.567Z,64.03
2018-10-21T11:02:20.529Z,63.29
2018-10-21T11:04:48.706Z,63.67
2018-10-21T11:07:17.023Z,63.15
2018-10-21T11:09:45.084Z,62.42
2018-10-21T11:12:13.179Z,63.19
2018-10-21T11:14:41.296Z,63.53
2018-10-21T11:17:09.384Z,62.01
2018-10-21T11:19:37.514Z,62.75
2018-10-21T11:22:05.793Z,62.34
2018-10-21T11:24:38.060Z,62.46
2018-10-21T11:27:06.959Z,61.14
2018-10-21T11:29:35.075Z,61.68
2018-10-21T11:32:03.175Z,61.68
2018-10-21T11:34:31.328Z,61.35
2018-10-21T11:36:59.445Z,60.35
2018-10-21T11:39:27.522Z,60.71
2018-10-21T11:41:55.648Z,59.68
2018-10-21T11:44:23.732Z,60.19
2018-10-21T11:46:52.004Z,59.13
2018-10-21T11:49:20.158Z,58.73
2018-10-21T11:51:48.260Z,59.69
2018-10-21T11:54:16.356Z,58.92
2018-10-21T11:56:44.603Z,60.04
2018-10-21T11:59:12.728Z,59.16
2018-10-21T12:01:40.825Z,58.60
2018-10-21T12:04:08.918Z,59.27
2018-10-21T12:06:37.029Z,58.86
2018-10-21T12:09:08.771Z,57.80
2018-10-21T12:11:36.871Z,58.43
2018-10-21T12:14:05.747Z,58.12
2018-10-21T12:16:33.867Z,58.27
2018-10-21T12:19:01.987Z,58.28
2018-10-21T12:21:30.166Z,57.23
2018-10-21T12:23:58.262Z,57.22
2018-10-21T12:26:26.464Z,57.56
2018-10-21T12:28:55.495Z,57.07
2018-10-21T12:31:25.093Z,57.44
2018-10-21T12:33:55.075Z,57.03
2018-10-21T12:36:24.840Z,56.64
2018-10-21T12:38:55.017Z,56.11
2018-10-21T12:41:24.299Z,56.01
2018-10-21T12:43:55.135Z,55.93
2018-10-21T12:46:26.630Z,55.83
2018-10-21T12:48:56.186Z,55.67
2018-10-21T12:51:26.486Z,54.62
2018-10-21T12:53:56.115Z,55.83
2018-10-21T12:56:25.977Z,55.19
2018-10-21T12:58:54.365Z,55.28
2018-10-21T13:01:26.023Z,56.31
2018-10-21T13:03:56.796Z,55.60
2018-10-21T13:06:26.224Z,55.81
2018-10-21T13:08:55.783Z,55.41
2018-10-21T13:11:27.291Z,55.19
2018-10-21T13:13:59.999Z,55.57
2018-10-21T13:16:29.289Z,55.67
2018-10-21T13:19:01.198Z,54.54
2018-10-21T13:21:31.923Z,55.98
2018-10-21T13:24:02.357Z,54.59
2018-10-21T13:26:34.894Z,55.39
2018-10-21T13:29:05.535Z,54.60
2018-10-21T13:31:35.129Z,55.17
2018-10-21T13:34:06.796Z,55.14
2018-10-21T13:36:39.409Z,54.81
2018-10-21T13:39:12.373Z,54.35
2018-10-21T13:44:23.076Z,54.38
2018-10-21T13:46:57.904Z,54.19
2018-10-21T13:49:29.338Z,54.25
2018-10-21T13:52:04.338Z,54.36
2018-10-21T13:54:35.343Z,54.90
2018-10-21T13:57:05.346Z,54.15
2018-10-21T13:59:36.646Z,54.34
2018-10-21T14:02:07.171Z,54.29
2018-10-21T14:04:38.339Z,55.54
2018-10-21T14:07:06.993Z,54.39
2018-10-21T14:09:40.172Z,54.36
2018-10-21T14:12:10.356Z,53.92
2018-10-21T14:14:39.898Z,54.97
2018-10-21T14:17:09.329Z,54.80
2018-10-21T14:19:39.431Z,54.36
2018-10-21T14:22:10.838Z,54.45
2018-10-21T14:24:40.210Z,54.38
2018-10-21T14:27:08.244Z,54.87
2018-10-21T14:29:36.426Z,55.24
2018-10-21T14:32:04.573Z,54.94
2018-10-21T14:34:32.677Z,55.22
2018-10-21T14:37:00.766Z,53.75
2018-10-21T14:39:28.914Z,54.26
2018-10-21T14:41:57.082Z,54.16
2018-10-21T14:44:25.263Z,54.81
2018-10-21T14:46:53.383Z,54.98
2018-10-21T14:49:21.488Z,54.27
2018-10-21T14:51:49.621Z,53.20
2018-10-21T14:54:17.844Z,53.50
2018-10-21T14:56:45.979Z,54.44
2018-10-21T14:59:14.141Z,54.62
2018-10-21T15:01:42.295Z,54.29
2018-10-21T15:04:10.473Z,54.75
2018-10-21T15:06:38.493Z,53.87
2018-10-21T15:09:10.024Z,53.62
2018-10-21T15:11:38.117Z,54.83
2018-10-21T15:14:06.259Z,55.14
2018-10-21T15:16:34.292Z,54.92
2018-10-21T15:19:02.481Z,55.64
2018-10-21T15:21:30.604Z,55.02
2018-10-21T15:23:58.728Z,55.16
2018-10-21T15:26:26.851Z,55.30
2018-10-21T15:28:55.056Z,55.55
2018-10-21T15:31:23.107Z,55.27
2018-10-21T15:33:51.232Z,56.00
2018-10-21T15:36:19.324Z,55.57
2018-10-21T15:38:47.516Z,56.06
2018-10-21T15:41:15.675Z,56.09
2018-10-21T15:43:43.813Z,56.01
2018-10-21T15:46:12.019Z,55.79
2018-10-21T15:48:40.050Z,56.32
2018-10-21T15:51:08.162Z,55.79
2018-10-21T15:53:36.243Z,56.40
2018-10-21T15:56:04.465Z,56.50
2018-10-21T15:58:32.521Z,56.43
2018-10-21T16:01:00.691Z,56.73
2018-10-21T16:03:28.815Z,57.44
2018-10-21T16:05:56.927Z,57.87
2018-10-21T16:08:25.059Z,59.23
2018-10-21T16:10:53.203Z,59.84
2018-10-21T16:13:21.335Z,60.71
2018-10-21T16:15:49.512Z,61.28
2018-10-21T16:18:17.559Z,61.31
2018-10-21T16:20:45.672Z,62.53
2018-10-21T16:23:13.755Z,63.01
2018-10-21T16:25:42.136Z,64.32
2018-10-21T16:28:10.122Z,64.36
2018-10-21T16:30:38.350Z,63.72
2018-10-21T16:33:06.362Z,64.22
2018-10-21T16:35:34.463Z,65.14
2018-10-21T16:38:02.551Z,64.91
2018-10-21T16:40:30.636Z,64.97
2018-10-21T16:42:58.735Z,65.27
2018-10-21T16:45:26.847Z,65.32
2018-10-21T16:47:54.982Z,66.40
2018-10-21T16:50:25.632Z,66.52
2018-10-21T16:52:56.238Z,66.26
2018-10-21T16:55:27.584Z,67.13
2018-10-21T16:57:56.762Z,66.85
2018-10-21T17:00:25.471Z,68.06
2018-10-21T17:02:54.578Z,67.59
2018-10-21T17:05:23.856Z,68.69
2018-10-21T17:07:52.411Z,69.26
2018-10-21T17:10:23.864Z,69.67
2018-10-21T17:12:53.840Z,69.25
2018-10-21T17:15:22.422Z,69.72
2018-10-21T17:17:51.399Z,70.09
2018-10-21T17:20:19.718Z,71.21
2018-10-21T17:22:54.998Z,71.63
2018-10-21T17:25:27.205Z,71.42
2018-10-21T17:27:58.481Z,71.59
2018-10-21T17:30:28.568Z,72.72
2018-10-21T17:32:56.692Z,73.39
2018-10-21T17:35:25.635Z,73.80
2018-10-21T17:37:56.309Z,73.34
2018-10-21T17:40:26.341Z,73.92
2018-10-21T17:42:55.633Z,74.46
2018-10-21T17:45:24.524Z,74.23
2018-10-21T17:47:52.769Z,75.13
2018-10-21T17:50:22.773Z,75.25
2018-10-21T17:52:52.344Z,76.20
2018-10-21T17:55:21.382Z,75.38
2018-10-21T17:57:50.208Z,76.09
2018-10-21T18:00:19.784Z,76.47
2018-10-21T18:02:47.986Z,77.47
2018-10-21T18:05:17.357Z,77.97
2018-10-21T18:07:46.364Z,77.45
2018-10-21T18:10:16.046Z,77.24
2018-10-21T18:12:45.414Z,76.87
2018-10-21T18:15:13.894Z,77.44
2018-10-21T18:17:50.535Z,77.09
2018-10-21T18:20:19.964Z,77.71
2018-10-21T18:22:51.773Z,78.06
2018-10-21T18:25:20.976Z,78.06
2018-10-21T18:27:50.816Z,79.08
2018-10-21T18:30:20.918Z,79.04
2018-10-21T18:32:49.237Z,78.73
2018-10-21T18:35:17.826Z,79.12
2018-10-21T18:37:46.112Z,79.63
2018-10-21T18:40:14.941Z,79.04
2018-10-21T18:42:44.068Z,79.39
2018-10-21T18:45:14.108Z,80.10
2018-10-21T18:47:42.984Z,80.91
2018-10-21T18:50:13.202Z,80.56
2018-10-21T18:52:42.081Z,81.18
2018-10-21T18:55:11.102Z,81.74
2018-10-21T18:57:39.429Z,82.05
2018-10-21T19:00:10.389Z,81.30
2018-10-21T19:02:39.556Z,80.35
2018-10-21T19:05:10.190Z,81.12
2018-10-21T19:07:40.200Z,82.11
2018-10-21T19:10:11.178Z,82.20
2018-10-21T19:12:39.344Z,82.54
2018-10-21T19:15:10.162Z,82.58
2018-10-21T19:17:40.988Z,83.30
2018-10-21T19:20:11.765Z,83.19
2018-10-21T19:22:40.610Z,83.48
2018-10-21T19:25:12.335Z,84.25
2018-10-21T19:27:40.527Z,84.89
2018-10-21T19:30:11.499Z,84.76
2018-10-21T19:32:40.341Z,85.11
2018-10-21T19:35:09.635Z,84.96
2018-10-21T19:37:53.618Z,84.73
2018-10-21T19:40:21.877Z,85.02
2018-10-21T19:42:50.206Z,85.10
2018-10-21T19:45:18.737Z,85.78
2018-10-21T19:47:47.316Z,85.79
2018-10-21T19:50:17.202Z,86.37
2018-10-21T19:52:46.248Z,85.68
2018-10-21T19:55:14.818Z,85.49
2018-10-21T19:57:43.666Z,86.41
2018-10-21T20:00:13.988Z,86.30
2018-10-21T20:02:42.525Z,85.09
2018-10-21T20:05:11.272Z,85.19
2018-10-21T20:07:41.745Z,84.66
2018-10-21T20:10:13.114Z,84.52
2018-10-21T20:12:44.452Z,86.40
2018-10-21T20:15:13.588Z,86.13
2018-10-21T20:17:45.586Z,85.68
2018-10-21T20:20:15.215Z,86.15
2018-10-21T20:22:43.555Z,86.82
2018-10-21T20:25:12.883Z,87.16
2018-10-21T20:27:43.364Z,86.81
2018-10-21T20:30:12.757Z,87.38
2018-10-21T20:32:41.096Z,88.11
2018-10-21T20:35:11.434Z,89.02
2018-10-21T20:37:39.799Z,89.81
2018-10-21T20:40:09.276Z,89.58
2018-10-21T20:42:37.489Z,89.92
2018-10-21T20:45:08.028Z,89.32
2018-10-21T20:47:37.070Z,89.41
2018-10-21T20:50:05.675Z,89.87
2018-10-21T20:52:34.083Z,89.28
2018-10-21T20:55:02.564Z,89.09
2018-10-21T20:57:31.078Z,88.98
2018-10-21T20:59:59.257Z,89.52
2018-10-21T21:02:28.274Z,88.99
2018-10-21T21:04:56.606Z,88.97
2018-10-21T21:07:25.512Z,88.56
2018-10-21T21:09:54.330Z,88.37
2018-10-21T21:12:23.314Z,87.53
2018-10-21T21:14:52.437Z,87.69
2018-10-21T21:17:20.721Z,88.32
2018-10-21T21:19:49.781Z,89.55
2018-10-21T21:22:18.877Z,89.90
2018-10-21T21:24:47.027Z,89.91
2018-10-21T21:27:15.512Z,89.44
2018-10-21T21:29:43.810Z,89.23
2018-10-21T21:32:12.063Z,89.56
2018-10-21T21:34:40.418Z,88.80
2018-10-21T21:37:10.789Z,88.82
2018-10-21T21:39:42.617Z,89.55
2018-10-21T21:42:11.087Z,89.16
2018-10-21T21:44:39.617Z,88.62
2018-10-21T21:47:07.987Z,88.28
2018-10-21T21:49:36.242Z,88.83
2018-10-21T21:52:04.673Z,89.47
2018-10-21T21:54:34.045Z,89.90
2018-10-21T21:57:06.238Z,90.60
2018-10-21T21:59:34.947Z,90.71
2018-10-21T22:02:03.410Z,90.55
2018-10-21T22:04:32.013Z,89.57
2018-10-21T22:07:02.682Z,88.91
2018-10-21T22:12:42.408Z,89.33
2018-10-21T22:15:10.848Z,90.43
2018-10-21T22:17:41.100Z,91.38
2018-10-21T22:20:09.369Z,91.49
2018-10-21T22:22:37.984Z,91.59
2018-10-21T22:25:16.179Z,91.52
2018-10-21T22:27:46.744Z,92.00
2018-10-21T22:30:15.569Z,92.50
2018-10-21T22:32:45.013Z,92.98
2018-10-21T22:35:13.357Z,92.73
2018-10-21T22:37:42.079Z,92.82
2018-10-21T22:40:11.719Z,92.52
2018-10-21T22:42:41.137Z,92.67
2018-10-21T22:45:11.742Z,92.58
2018-10-21T22:47:40.814Z,92.32
2018-10-21T22:50:10.660Z,92.26
2018-10-21T22:52:38.972Z,92.07
2018-10-21T22:55:08.214Z,90.89
2018-10-21T22:57:36.311Z,90.73
2018-10-21T23:00:06.965Z,90.48
2018-10-21T23:02:35.451Z,90.20
2018-10-21T23:05:04.419Z,89.55
2018-10-21T23:07:32.845Z,89.01
2018-10-21T23:10:01.792Z,89.50
2018-10-21T23:12:30.132Z,91.19
2018-10-21T23:14:58.392Z,91.37
2018-10-21T23:17:27.442Z,92.03
2018-10-21T23:19:55.775Z,92.44
2018-10-21T23:22:24.215Z,92.32
2018-10-21T23:24:55.011Z,92.03
2018-10-21T23:27:23.456Z,92.50
2018-10-21T23:29:51.844Z,91.92
2018-10-21T23:32:20.440Z,91.83
2018-10-21T23:34:48.797Z,91.75
2018-10-21T23:39:52.221Z,92.52
2018-10-21T23:42:20.589Z,92.45
2018-10-21T23:44:50.743Z,92.11
2018-10-21T23:47:18.985Z,92.08
2018-10-21T23:49:47.271Z,92.46
2018-10-21T23:52:16.740Z,92.43
2018-10-21T23:54:45.178Z,92.30
2018-10-21T23:57:13.389Z,92.14
2018-10-21T23:59:43.268Z,92.23
